createdAt,value
2023-08-27T00:02:37.272Z,19.72
2023-08-27T00:04:30.420Z,19.70
2023-08-27T00:06:23.478Z,19.69
2023-08-27T00:08:16.733Z,19.67
2023-08-27T00:10:10.641Z,19.66
2023-08-27T00:12:05.083Z,19.65
2023-08-27T00:13:58.644Z,19.65
2023-08-27T00:15:51.780Z,19.64
2023-08-27T00:17:45.405Z,19.62
2023-08-27T00:19:38.616Z,19.61
2023-08-27T00:21:31.608Z,19.60
2023-08-27T00:23:25.376Z,19.60
2023-08-27T00:25:18.688Z,19.59
2023-08-27T00:27:11.739Z,19.58
2023-08-27T00:29:05.200Z,19.57
2023-08-27T00:31:03.649Z,19.56
2023-08-27T00:32:56.858Z,19.54
2023-08-27T00:34:50.290Z,19.53
2023-08-27T00:36:43.548Z,19.52
2023-08-27T00:38:38.856Z,19.51
2023-08-27T00:40:32.103Z,19.48
2023-08-27T00:42:25.158Z,19.46
2023-08-27T00:44:18.203Z,19.44
2023-08-27T00:46:12.223Z,19.42
2023-08-27T00:48:05.685Z,19.41
2023-08-27T00:49:58.996Z,19.39
2023-08-27T00:51:53.588Z,19.38
2023-08-27T00:53:46.634Z,19.36
2023-08-27T00:55:39.886Z,19.34
2023-08-27T00:57:34.664Z,19.32
2023-08-27T00:59:27.864Z,19.29
2023-08-27T01:01:23.994Z,19.29
2023-08-27T01:03:17.271Z,19.27
2023-08-27T01:05:10.465Z,19.27
2023-08-27T01:07:13.090Z,19.27
2023-08-27T01:09:31.792Z,19.27
2023-08-27T01:11:32.631Z,19.25
2023-08-27T01:13:38.167Z,19.24
2023-08-27T01:15:33.049Z,19.24
2023-08-27T01:17:26.546Z,19.24
2023-08-27T01:19:22.035Z,19.23
2023-08-27T01:21:26.015Z,19.23
2023-08-27T01:23:19.194Z,19.22
2023-08-27T01:25:14.245Z,19.21
2023-08-27T01:27:20.651Z,19.20
2023-08-27T01:29:32.445Z,19.19
2023-08-27T01:31:30.033Z,19.18
2023-08-27T01:33:26.996Z,19.15
2023-08-27T01:35:21.067Z,19.13
2023-08-27T01:37:14.680Z,19.10
2023-08-27T01:39:08.552Z,19.07
2023-08-27T01:41:01.603Z,19.06
2023-08-27T01:42:54.858Z,19.04
2023-08-27T01:44:47.914Z,19.03
2023-08-27T01:46:41.002Z,19.01
2023-08-27T01:48:34.112Z,19.00
2023-08-27T01:50:27.265Z,18.99
2023-08-27T01:52:20.413Z,18.98
2023-08-27T01:54:13.364Z,18.97
2023-08-27T01:56:07.295Z,18.96
2023-08-27T01:58:00.283Z,18.95
2023-08-27T01:59:54.158Z,18.96
2023-08-27T02:01:47.204Z,18.96
2023-08-27T02:03:40.256Z,18.96
2023-08-27T02:05:33.407Z,18.96
2023-08-27T02:07:27.593Z,18.94
2023-08-27T02:09:20.636Z,18.93
2023-08-27T02:11:13.690Z,18.93
2023-08-27T02:13:06.738Z,18.92
2023-08-27T02:15:00.720Z,18.93
2023-08-27T02:16:53.770Z,18.93
2023-08-27T02:18:46.818Z,18.92
2023-08-27T02:20:41.197Z,18.91
2023-08-27T02:22:35.092Z,18.91
2023-08-27T02:24:28.120Z,18.91
2023-08-27T02:26:21.062Z,18.91
2023-08-27T02:28:15.865Z,18.91
2023-08-27T02:30:10.037Z,18.91
2023-08-27T02:32:04.134Z,18.91
2023-08-27T02:33:57.160Z,18.92
2023-08-27T02:35:51.790Z,18.91
2023-08-27T02:37:45.614Z,18.93
2023-08-27T02:39:38.678Z,18.95
2023-08-27T02:41:32.737Z,18.97
2023-08-27T02:43:25.890Z,18.99
2023-08-27T02:45:21.292Z,18.97
2023-08-27T02:47:14.470Z,18.95
2023-08-27T02:49:07.707Z,18.91
2023-08-27T02:51:00.755Z,18.89
2023-08-27T02:52:53.756Z,18.88
2023-08-27T02:54:46.955Z,18.87
2023-08-27T02:56:39.958Z,18.85
2023-08-27T02:58:33.173Z,18.83
2023-08-27T03:00:26.774Z,18.83
2023-08-27T03:02:19.879Z,18.85
2023-08-27T03:04:13.135Z,18.87
2023-08-27T03:06:06.185Z,18.88
2023-08-27T03:07:59.951Z,18.89
2023-08-27T03:09:52.897Z,18.89
2023-08-27T03:11:45.956Z,18.89
2023-08-27T03:13:39.209Z,18.90
2023-08-27T03:15:32.150Z,18.91
2023-08-27T03:17:25.268Z,18.92
2023-08-27T03:19:18.461Z,18.92
2023-08-27T03:21:11.613Z,18.91
2023-08-27T03:23:04.671Z,18.91
2023-08-27T03:25:01.753Z,18.91
2023-08-27T03:26:55.678Z,18.91
2023-08-27T03:28:48.730Z,18.90
2023-08-27T03:30:41.826Z,18.89
2023-08-27T03:32:34.942Z,18.88
2023-08-27T03:34:28.195Z,18.86
2023-08-27T03:36:21.389Z,18.85
2023-08-27T03:38:14.392Z,18.84
2023-08-27T03:40:07.987Z,18.84
2023-08-27T03:42:01.681Z,18.85
2023-08-27T03:43:54.671Z,18.86
2023-08-27T03:45:47.828Z,18.86
2023-08-27T03:47:40.908Z,18.87
2023-08-27T03:49:34.851Z,18.86
2023-08-27T03:51:32.297Z,18.85
2023-08-27T03:53:25.456Z,18.84
2023-08-27T03:55:18.917Z,18.82
2023-08-27T03:57:12.382Z,18.81
2023-08-27T03:59:06.568Z,18.79
2023-08-27T04:01:00.457Z,18.78
2023-08-27T04:02:53.602Z,18.78
2023-08-27T04:04:46.829Z,18.77
2023-08-27T04:06:40.517Z,18.77
2023-08-27T04:08:33.649Z,18.76
2023-08-27T04:10:26.856Z,18.76
2023-08-27T04:12:19.951Z,18.75
2023-08-27T04:14:12.912Z,18.76
2023-08-27T04:16:08.169Z,18.74
2023-08-27T04:18:02.134Z,18.74
2023-08-27T04:19:57.070Z,18.75
2023-08-27T04:21:50.019Z,18.74
2023-08-27T04:23:42.968Z,18.75
2023-08-27T04:25:36.018Z,18.76
2023-08-27T04:27:29.330Z,18.76
2023-08-27T04:29:22.733Z,18.77
2023-08-27T04:31:17.763Z,18.79
2023-08-27T04:33:13.866Z,18.78
2023-08-27T04:35:07.215Z,18.78
2023-08-27T04:37:02.326Z,18.79
2023-08-27T04:38:55.359Z,18.79
2023-08-27T04:40:53.344Z,18.80
2023-08-27T04:42:46.706Z,18.83
2023-08-27T04:44:39.737Z,18.84
2023-08-27T04:46:33.014Z,18.86
2023-08-27T04:48:26.042Z,18.87
2023-08-27T04:50:19.399Z,18.88
2023-08-27T04:52:26.094Z,18.91
2023-08-27T04:54:24.750Z,18.93
2023-08-27T04:56:18.113Z,18.95
2023-08-27T04:58:11.465Z,18.98
2023-08-27T05:00:08.779Z,19.00
2023-08-27T05:02:01.872Z,19.05
2023-08-27T05:03:54.970Z,19.10
2023-08-27T05:05:48.037Z,19.16
2023-08-27T05:07:41.018Z,19.18
2023-08-27T05:09:34.070Z,19.23
2023-08-27T05:11:26.962Z,19.24
2023-08-27T05:13:21.372Z,19.22
2023-08-27T05:15:14.451Z,19.21
2023-08-27T05:17:07.504Z,19.21
2023-08-27T05:19:00.771Z,19.20
2023-08-27T05:20:54.014Z,19.19
2023-08-27T05:22:47.067Z,19.21
2023-08-27T05:24:40.113Z,19.25
2023-08-27T05:26:33.327Z,19.30
2023-08-27T05:28:27.136Z,19.33
2023-08-27T05:30:20.130Z,19.37
2023-08-27T05:32:13.132Z,19.40
2023-08-27T05:34:08.026Z,19.45
2023-08-27T05:36:01.283Z,19.50
2023-08-27T05:37:54.235Z,19.54
2023-08-27T05:39:47.385Z,19.59
2023-08-27T05:41:40.437Z,19.65
2023-08-27T05:43:35.438Z,19.68
2023-08-27T05:45:28.452Z,19.72
2023-08-27T05:47:21.738Z,19.76
2023-08-27T05:49:14.747Z,19.79
2023-08-27T05:51:08.147Z,19.85
2023-08-27T05:53:05.258Z,19.89
2023-08-27T05:54:59.204Z,19.92
2023-08-27T05:56:52.217Z,19.95
2023-08-27T05:58:45.682Z,19.98
2023-08-27T06:00:38.724Z,20.01
2023-08-27T06:02:31.914Z,20.04
2023-08-27T06:04:25.642Z,20.08
2023-08-27T06:06:18.702Z,20.10
2023-08-27T06:08:11.747Z,20.10
2023-08-27T06:10:05.225Z,20.10
2023-08-27T06:11:59.999Z,20.11
2023-08-27T06:13:53.046Z,20.16
2023-08-27T06:15:46.672Z,20.25
2023-08-27T06:17:39.767Z,20.38
2023-08-27T06:19:46.553Z,20.55
2023-08-27T06:21:41.636Z,20.74
2023-08-27T06:23:35.808Z,20.91
2023-08-27T06:25:28.768Z,21.08
2023-08-27T06:27:21.810Z,21.19
2023-08-27T06:29:14.860Z,21.29
2023-08-27T06:31:08.343Z,21.35
2023-08-27T06:33:02.725Z,21.39
2023-08-27T06:34:56.369Z,21.38
2023-08-27T06:36:49.622Z,21.30
2023-08-27T06:38:44.003Z,21.22
2023-08-27T06:40:37.873Z,21.21
2023-08-27T06:42:31.750Z,21.21
2023-08-27T06:44:25.728Z,21.23
2023-08-27T06:46:21.751Z,21.20
2023-08-27T06:48:15.110Z,21.19
2023-08-27T06:50:08.450Z,21.18
2023-08-27T06:52:01.398Z,21.18
2023-08-27T06:53:56.096Z,21.22
2023-08-27T06:55:50.066Z,21.25
2023-08-27T06:57:43.062Z,21.28
2023-08-27T06:59:37.430Z,21.32
2023-08-27T07:01:30.684Z,21.39
2023-08-27T07:03:24.458Z,21.46
2023-08-27T07:05:18.497Z,21.52
2023-08-27T07:07:11.540Z,21.54
2023-08-27T07:09:06.126Z,21.56
2023-08-27T07:10:59.281Z,21.56
2023-08-27T07:12:53.967Z,21.55
2023-08-27T07:14:47.021Z,21.59
2023-08-27T07:16:40.072Z,21.65
2023-08-27T07:18:33.177Z,21.70
2023-08-27T07:20:26.278Z,21.76
2023-08-27T07:22:19.222Z,21.82
2023-08-27T07:24:15.151Z,21.87
2023-08-27T07:26:08.205Z,21.90
2023-08-27T07:28:01.516Z,21.87
2023-08-27T07:29:55.212Z,21.91
2023-08-27T07:31:48.293Z,22.02
2023-08-27T07:33:41.518Z,22.11
2023-08-27T07:35:34.581Z,22.16
2023-08-27T07:37:27.567Z,22.19
2023-08-27T07:39:20.880Z,22.24
2023-08-27T07:41:15.062Z,22.25
2023-08-27T07:43:08.767Z,22.23
2023-08-27T07:45:03.319Z,22.20
2023-08-27T07:46:56.486Z,22.17
2023-08-27T07:48:49.620Z,22.17
2023-08-27T07:50:43.392Z,22.21
2023-08-27T07:52:37.146Z,22.24
2023-08-27T07:54:30.402Z,22.25
2023-08-27T07:56:25.504Z,22.29
2023-08-27T07:58:18.656Z,22.29
2023-08-27T08:00:14.792Z,22.23
2023-08-27T08:02:07.829Z,22.18
2023-08-27T08:04:01.204Z,22.17
2023-08-27T08:05:54.747Z,22.19
2023-08-27T08:07:47.798Z,22.21
2023-08-27T08:09:40.855Z,22.25
2023-08-27T08:11:33.744Z,22.28
2023-08-27T08:13:27.078Z,22.35
2023-08-27T08:15:20.306Z,22.39
2023-08-27T08:17:13.482Z,22.41
2023-08-27T08:19:06.405Z,22.43
2023-08-27T08:21:01.457Z,22.44
2023-08-27T08:22:54.524Z,22.42
2023-08-27T08:24:48.252Z,22.43
2023-08-27T08:26:41.328Z,22.46
2023-08-27T08:28:36.071Z,22.45
2023-08-27T08:30:29.117Z,22.44
2023-08-27T08:32:22.168Z,22.45
2023-08-27T08:34:15.931Z,22.44
2023-08-27T08:36:08.982Z,22.45
2023-08-27T08:38:02.339Z,22.45
2023-08-27T08:39:56.206Z,22.40
2023-08-27T08:42:00.008Z,22.39
2023-08-27T08:44:09.344Z,22.41
2023-08-27T08:46:07.107Z,22.41
2023-08-27T08:48:03.616Z,22.47
2023-08-27T08:49:59.859Z,22.54
2023-08-27T08:51:58.747Z,22.67
2023-08-27T08:53:54.428Z,22.77
2023-08-27T08:55:51.006Z,22.82
2023-08-27T08:57:52.565Z,22.85
2023-08-27T08:59:47.241Z,22.89
2023-08-27T09:01:40.848Z,22.93
2023-08-27T09:03:36.258Z,22.97
2023-08-27T09:05:30.937Z,22.99
2023-08-27T09:07:25.286Z,22.96
2023-08-27T09:09:23.234Z,22.94
2023-08-27T09:11:17.412Z,22.94
2023-08-27T09:13:11.736Z,22.93
2023-08-27T09:15:05.302Z,22.93
2023-08-27T09:16:58.817Z,22.94
2023-08-27T09:18:51.871Z,22.95
2023-08-27T09:20:45.131Z,22.92
2023-08-27T09:22:38.790Z,22.92
2023-08-27T09:24:31.937Z,22.92
2023-08-27T09:26:25.349Z,22.93
2023-08-27T09:28:19.594Z,22.89
2023-08-27T09:30:14.011Z,22.86
2023-08-27T09:32:07.530Z,22.87
2023-08-27T09:34:00.893Z,22.90
2023-08-27T09:35:54.343Z,22.96
2023-08-27T09:37:48.519Z,23.04
2023-08-27T09:39:45.983Z,23.09
2023-08-27T09:41:44.269Z,23.15
2023-08-27T09:43:37.299Z,23.25
2023-08-27T09:45:30.250Z,23.36
2023-08-27T09:47:31.873Z,23.48
2023-08-27T09:49:25.356Z,23.57
2023-08-27T09:51:18.815Z,23.62
2023-08-27T09:53:13.930Z,23.68
2023-08-27T09:55:15.349Z,23.75
2023-08-27T09:57:18.599Z,23.82
2023-08-27T09:59:11.710Z,23.89
2023-08-27T10:01:04.814Z,23.91
2023-08-27T10:02:58.803Z,23.91
2023-08-27T10:04:56.288Z,23.91
2023-08-27T10:06:49.610Z,23.94
2023-08-27T10:08:52.550Z,23.95
2023-08-27T10:10:48.257Z,23.99
2023-08-27T10:12:43.999Z,24.01
2023-08-27T10:14:42.924Z,24.01
2023-08-27T10:16:41.529Z,24.03
2023-08-27T10:18:39.739Z,24.05
2023-08-27T10:20:35.923Z,24.08
2023-08-27T10:22:31.218Z,24.11
2023-08-27T10:24:27.266Z,24.13
2023-08-27T10:26:24.963Z,24.16
2023-08-27T10:28:21.172Z,24.18
2023-08-27T10:30:17.104Z,24.20
2023-08-27T10:32:12.190Z,24.21
2023-08-27T10:34:07.344Z,24.23
2023-08-27T10:36:05.460Z,24.24
2023-08-27T10:37:59.229Z,24.24
2023-08-27T10:39:55.114Z,24.19
2023-08-27T10:41:48.544Z,24.16
2023-08-27T10:43:41.654Z,24.12
2023-08-27T10:45:39.174Z,24.10
2023-08-27T10:47:32.336Z,24.06
2023-08-27T10:49:25.368Z,24.01
2023-08-27T10:51:19.688Z,23.94
2023-08-27T10:53:14.416Z,23.88
2023-08-27T10:55:07.817Z,23.84
2023-08-27T10:57:22.804Z,23.81
2023-08-27T10:59:32.126Z,23.77
2023-08-27T11:01:26.985Z,23.74
2023-08-27T11:03:24.466Z,23.68
2023-08-27T11:05:28.213Z,23.66
2023-08-27T11:07:24.483Z,23.61
2023-08-27T11:09:47.812Z,23.60
2023-08-27T11:14:47.967Z,23.60
2023-08-27T11:16:47.020Z,23.62
2023-08-27T11:18:50.661Z,23.66
2023-08-27T11:20:46.162Z,23.69
2023-08-27T11:23:09.417Z,23.70
2023-08-27T11:25:03.757Z,23.73
2023-08-27T11:27:22.317Z,23.74
2023-08-27T11:29:25.533Z,23.73
2023-08-27T11:31:21.229Z,23.73
2023-08-27T11:33:17.078Z,23.69
2023-08-27T11:35:13.394Z,23.67
2023-08-27T11:37:07.625Z,23.63
2023-08-27T11:39:07.396Z,23.62
2023-08-27T11:41:00.812Z,23.58
2023-08-27T11:42:56.355Z,23.55
2023-08-27T11:44:53.972Z,23.54
2023-08-27T11:46:48.376Z,23.54
2023-08-27T11:48:49.513Z,23.53
2023-08-27T11:50:44.347Z,23.54
2023-08-27T11:52:38.062Z,23.55
2023-08-27T11:54:33.202Z,23.58
2023-08-27T11:56:28.355Z,23.57
2023-08-27T11:58:21.748Z,23.58
2023-08-27T12:00:15.996Z,23.58
2023-08-27T12:02:13.102Z,23.56
2023-08-27T12:04:06.633Z,23.54
2023-08-27T12:05:59.683Z,23.53
2023-08-27T12:07:52.638Z,23.52
2023-08-27T12:09:51.936Z,23.50
2023-08-27T12:11:45.080Z,23.48
2023-08-27T12:13:40.514Z,23.49
2023-08-27T12:15:37.323Z,23.47
2023-08-27T12:17:35.195Z,23.44
2023-08-27T12:19:28.447Z,23.43
2023-08-27T12:21:23.094Z,23.41
2023-08-27T12:23:17.315Z,23.40
2023-08-27T12:25:10.771Z,23.38
2023-08-27T12:27:09.430Z,23.36
2023-08-27T12:29:02.453Z,23.36
2023-08-27T12:30:58.956Z,23.35
2023-08-27T12:32:56.290Z,23.34
2023-08-27T12:34:51.588Z,23.33
2023-08-27T12:36:44.540Z,23.31
2023-08-27T12:38:37.587Z,23.29
2023-08-27T12:40:30.640Z,23.29
2023-08-27T12:42:26.696Z,23.29
2023-08-27T12:44:20.018Z,23.30
2023-08-27T12:46:13.106Z,23.30
2023-08-27T12:48:06.560Z,23.30
2023-08-27T12:49:59.987Z,23.30
2023-08-27T12:51:55.504Z,23.31
2023-08-27T12:53:48.549Z,23.33
2023-08-27T12:55:41.701Z,23.35
2023-08-27T12:57:34.759Z,23.36
2023-08-27T12:59:28.237Z,23.39
2023-08-27T13:01:21.488Z,23.43
2023-08-27T13:03:14.678Z,23.45
2023-08-27T13:05:08.596Z,23.49
2023-08-27T13:07:01.545Z,23.51
2023-08-27T13:08:54.593Z,23.51
2023-08-27T13:10:47.642Z,23.50
2023-08-27T13:12:40.590Z,23.49
2023-08-27T13:14:33.553Z,23.47
2023-08-27T13:16:28.411Z,23.43
2023-08-27T13:18:22.886Z,23.41
2023-08-27T13:20:17.301Z,23.39
2023-08-27T13:22:10.862Z,23.37
2023-08-27T13:24:05.201Z,23.35
2023-08-27T13:25:58.203Z,23.33
2023-08-27T13:27:51.245Z,23.29
2023-08-27T13:29:44.300Z,23.26
2023-08-27T13:31:38.943Z,23.24
2023-08-27T13:33:32.184Z,23.22
2023-08-27T13:35:25.818Z,23.21
2023-08-27T13:37:18.799Z,23.19
2023-08-27T13:39:12.209Z,23.18
2023-08-27T13:41:05.592Z,23.18
2023-08-27T13:42:58.619Z,23.16
2023-08-27T13:44:51.873Z,23.15
2023-08-27T13:46:44.819Z,23.13
2023-08-27T13:48:38.074Z,23.10
2023-08-27T13:50:31.586Z,23.08
2023-08-27T13:52:25.713Z,23.04
2023-08-27T13:54:18.771Z,23.00
2023-08-27T13:56:11.815Z,22.96
2023-08-27T13:58:05.067Z,22.92
2023-08-27T13:59:58.430Z,22.88
2023-08-27T14:01:51.528Z,22.85
2023-08-27T14:03:44.680Z,22.83
2023-08-27T14:05:37.986Z,22.82
2023-08-27T14:07:30.938Z,22.81
2023-08-27T14:09:23.985Z,22.79
2023-08-27T14:11:16.935Z,22.77
2023-08-27T14:13:10.797Z,22.76
2023-08-27T14:15:05.070Z,22.75
2023-08-27T14:16:58.132Z,22.75
2023-08-27T14:18:51.188Z,22.72
2023-08-27T14:20:44.246Z,22.67
2023-08-27T14:22:37.288Z,22.64
2023-08-27T14:24:30.338Z,22.60
2023-08-27T14:26:23.396Z,22.56
2023-08-27T14:28:16.477Z,22.53
2023-08-27T14:30:10.626Z,22.51
2023-08-27T14:32:06.554Z,22.49
2023-08-27T14:34:09.636Z,22.46
2023-08-27T14:36:02.623Z,22.43
2023-08-27T14:37:55.717Z,22.41
2023-08-27T14:39:48.776Z,22.39
2023-08-27T14:41:42.335Z,22.36
2023-08-27T14:43:35.279Z,22.34
2023-08-27T14:45:28.330Z,22.33
2023-08-27T14:47:21.391Z,22.31
2023-08-27T14:49:14.432Z,22.28
2023-08-27T14:51:07.480Z,22.25
2023-08-27T14:53:00.537Z,22.24
2023-08-27T14:54:53.789Z,22.21
2023-08-27T14:56:47.259Z,22.18
2023-08-27T14:58:46.034Z,22.16
2023-08-27T15:00:39.674Z,22.12
2023-08-27T15:02:32.865Z,22.10
2023-08-27T15:04:26.052Z,22.07
2023-08-27T15:06:19.614Z,22.04
2023-08-27T15:08:13.391Z,21.99
2023-08-27T15:10:08.104Z,21.97
2023-08-27T15:12:02.097Z,21.95
2023-08-27T15:13:55.095Z,21.93
2023-08-27T15:15:48.227Z,21.91
2023-08-27T15:17:43.437Z,21.92
2023-08-27T15:19:36.452Z,21.91
2023-08-27T15:21:29.400Z,21.90
2023-08-27T15:23:22.449Z,21.88
2023-08-27T15:25:15.511Z,21.85
2023-08-27T15:27:08.657Z,21.84
2023-08-27T15:29:01.711Z,21.82
2023-08-27T15:30:55.007Z,21.81
2023-08-27T15:32:49.236Z,21.79
2023-08-27T15:34:42.302Z,21.76
2023-08-27T15:36:35.294Z,21.71
2023-08-27T15:38:28.293Z,21.65
2023-08-27T15:40:21.345Z,21.58
2023-08-27T15:42:14.391Z,21.50
2023-08-27T15:44:07.852Z,21.43
2023-08-27T15:46:01.267Z,21.33
2023-08-27T15:47:54.395Z,21.29
2023-08-27T15:49:47.929Z,21.22
2023-08-27T15:51:41.536Z,21.15
2023-08-27T15:53:34.646Z,21.10
2023-08-27T15:55:27.704Z,21.04
2023-08-27T15:57:20.740Z,21.00
2023-08-27T15:59:13.897Z,20.95
2023-08-27T16:01:07.208Z,20.92
2023-08-27T16:03:00.388Z,20.89
2023-08-27T16:04:53.768Z,20.88
2023-08-27T16:06:47.632Z,20.87
2023-08-27T16:08:41.551Z,20.87
2023-08-27T16:10:38.710Z,20.86
2023-08-27T16:12:32.114Z,20.85
2023-08-27T16:14:25.465Z,20.84
2023-08-27T16:16:18.710Z,20.83
2023-08-27T16:18:12.388Z,20.82
2023-08-27T16:20:06.982Z,20.82
2023-08-27T16:22:00.029Z,20.81
2023-08-27T16:23:54.223Z,20.78
2023-08-27T16:25:48.047Z,20.77
2023-08-27T16:27:41.539Z,20.76
2023-08-27T16:29:34.790Z,20.75
2023-08-27T16:31:28.143Z,20.73
2023-08-27T16:33:21.409Z,20.70
2023-08-27T16:35:14.554Z,20.66
2023-08-27T16:37:07.604Z,20.61
2023-08-27T16:39:00.728Z,20.58
2023-08-27T16:40:53.912Z,20.53
2023-08-27T16:42:47.064Z,20.50
2023-08-27T16:44:40.319Z,20.48
2023-08-27T16:46:33.419Z,20.45
2023-08-27T16:48:28.687Z,20.43
2023-08-27T16:50:32.836Z,20.39
2023-08-27T16:52:26.241Z,20.35
2023-08-27T16:54:22.574Z,20.33
2023-08-27T16:56:15.794Z,20.30
2023-08-27T16:58:10.053Z,20.26
2023-08-27T17:00:05.212Z,20.23
2023-08-27T17:01:58.602Z,20.21
2023-08-27T17:03:52.287Z,20.21
2023-08-27T17:05:47.026Z,20.19
2023-08-27T17:07:40.182Z,20.18
2023-08-27T17:09:33.957Z,20.17
2023-08-27T17:11:26.990Z,20.15
2023-08-27T17:13:20.434Z,20.16
2023-08-27T17:15:14.471Z,20.14
2023-08-27T17:17:09.012Z,20.11
2023-08-27T17:19:02.963Z,20.07
2023-08-27T17:20:56.996Z,20.02
2023-08-27T17:22:51.439Z,20.00
2023-08-27T17:24:45.043Z,19.99
2023-08-27T17:26:38.813Z,19.97
2023-08-27T17:28:32.222Z,19.94
2023-08-27T17:30:25.518Z,19.92
2023-08-27T17:32:18.734Z,19.91
2023-08-27T17:34:12.252Z,19.89
2023-08-27T17:36:06.213Z,19.87
2023-08-27T17:37:59.934Z,19.86
2023-08-27T17:39:54.417Z,19.85
2023-08-27T17:41:51.171Z,19.84
2023-08-27T17:43:44.736Z,19.83
2023-08-27T17:45:38.212Z,19.82
2023-08-27T17:47:32.786Z,19.82
2023-08-27T17:49:26.228Z,19.81
2023-08-27T17:51:19.791Z,19.81
2023-08-27T17:53:13.353Z,19.80
2023-08-27T17:55:07.320Z,19.79
2023-08-27T17:57:00.894Z,19.78
2023-08-27T17:58:54.447Z,19.76
2023-08-27T18:00:47.874Z,19.74
2023-08-27T18:02:41.892Z,19.73
2023-08-27T18:04:35.393Z,19.72
2023-08-27T18:06:29.655Z,19.71
2023-08-27T18:08:23.740Z,19.69
2023-08-27T18:10:17.578Z,19.68
2023-08-27T18:12:11.248Z,19.67
2023-08-27T18:14:05.117Z,19.67
2023-08-27T18:15:59.375Z,19.67
2023-08-27T18:17:53.914Z,19.67
2023-08-27T18:19:48.571Z,19.68
2023-08-27T18:21:43.293Z,19.67
2023-08-27T18:23:37.566Z,19.66
2023-08-27T18:25:32.813Z,19.64
2023-08-27T18:27:27.666Z,19.61
2023-08-27T18:29:23.382Z,19.56
2023-08-27T18:31:18.322Z,19.53
2023-08-27T18:33:14.271Z,19.51
2023-08-27T18:35:09.503Z,19.49
2023-08-27T18:37:03.771Z,19.46
2023-08-27T18:38:58.340Z,19.43
2023-08-27T18:40:58.437Z,19.40
2023-08-27T18:42:54.819Z,19.37
2023-08-27T18:44:49.590Z,19.34
2023-08-27T18:46:44.856Z,19.31
2023-08-27T18:48:40.600Z,19.29
2023-08-27T18:50:35.741Z,19.28
2023-08-27T18:52:30.168Z,19.25
2023-08-27T18:54:29.028Z,19.23
2023-08-27T18:56:25.060Z,19.21
2023-08-27T18:58:21.334Z,19.19
2023-08-27T19:00:19.645Z,19.16
2023-08-27T19:02:16.047Z,19.09
2023-08-27T19:04:11.436Z,19.05
2023-08-27T19:06:07.083Z,19.02
2023-08-27T19:08:03.459Z,18.98
2023-08-27T19:10:01.870Z,18.94
2023-08-27T19:12:01.444Z,18.88
2023-08-27T19:13:58.158Z,18.83
2023-08-27T19:15:56.760Z,18.79
2023-08-27T19:17:55.766Z,18.76
2023-08-27T19:19:55.940Z,18.73
2023-08-27T19:21:50.082Z,18.70
2023-08-27T19:23:44.949Z,18.71
2023-08-27T19:25:40.878Z,18.69
2023-08-27T19:27:36.645Z,18.67
2023-08-27T19:29:31.678Z,18.65
2023-08-27T19:31:36.639Z,18.62
2023-08-27T19:33:40.414Z,18.59
2023-08-27T19:35:35.202Z,18.56
2023-08-27T19:37:29.892Z,18.52
2023-08-27T19:39:24.794Z,18.50
2023-08-27T19:41:21.062Z,18.46
2023-08-27T19:43:18.094Z,18.41
2023-08-27T19:45:13.658Z,18.36
2023-08-27T19:47:07.941Z,18.29
2023-08-27T19:49:04.051Z,18.28
2023-08-27T19:51:00.941Z,18.27
2023-08-27T19:53:01.364Z,18.25
2023-08-27T19:54:58.084Z,18.22
2023-08-27T19:56:55.780Z,18.19
2023-08-27T19:58:49.969Z,18.17
2023-08-27T20:00:45.701Z,18.16
2023-08-27T20:02:40.438Z,18.13
2023-08-27T20:04:35.507Z,18.12
2023-08-27T20:06:30.606Z,18.11
2023-08-27T20:08:24.655Z,18.10
2023-08-27T20:10:18.728Z,18.10
2023-08-27T20:12:13.236Z,18.10
2023-08-27T20:14:08.212Z,18.09
2023-08-27T20:16:03.258Z,18.09
2023-08-27T20:17:57.034Z,18.07
2023-08-27T20:19:50.819Z,18.05
2023-08-27T20:21:44.328Z,18.02
2023-08-27T20:23:37.535Z,18.01
2023-08-27T20:25:31.006Z,18.00
2023-08-27T20:27:24.782Z,18.00
2023-08-27T20:29:25.185Z,17.98
2023-08-27T20:31:18.685Z,17.98
2023-08-27T20:33:12.061Z,17.98
2023-08-27T20:35:06.842Z,17.99
2023-08-27T20:37:00.254Z,17.98
2023-08-27T20:38:54.331Z,17.98
2023-08-27T20:40:47.815Z,17.97
2023-08-27T20:42:43.039Z,17.97
2023-08-27T20:44:36.563Z,17.97
2023-08-27T20:46:30.278Z,17.96
2023-08-27T20:48:23.483Z,17.97
2023-08-27T20:50:17.959Z,17.97
2023-08-27T20:52:11.109Z,17.99
2023-08-27T20:54:11.944Z,18.00
2023-08-27T20:56:05.408Z,18.00
2023-08-27T20:57:58.545Z,17.99
2023-08-27T20:59:51.808Z,18.00
2023-08-27T21:01:48.746Z,18.02
2023-08-27T21:03:42.831Z,18.02
2023-08-27T21:05:40.288Z,18.03
2023-08-27T21:07:34.463Z,18.02
2023-08-27T21:09:27.717Z,18.02
2023-08-27T21:11:21.070Z,18.02
2023-08-27T21:13:14.126Z,18.01
2023-08-27T21:15:07.790Z,18.01
2023-08-27T21:17:00.942Z,18.00
2023-08-27T21:18:54.573Z,18.01
2023-08-27T21:20:53.595Z,18.01
2023-08-27T21:22:46.543Z,18.00
2023-08-27T21:24:39.805Z,17.99
2023-08-27T21:26:33.364Z,17.98
2023-08-27T21:28:26.413Z,17.98
2023-08-27T21:30:19.828Z,17.97
2023-08-27T21:32:12.969Z,17.96
2023-08-27T21:34:06.094Z,17.97
2023-08-27T21:35:59.194Z,17.97
2023-08-27T21:37:52.498Z,17.98
2023-08-27T21:39:47.112Z,17.98
2023-08-27T21:41:45.761Z,17.98
2023-08-27T21:43:39.730Z,17.99
2023-08-27T21:45:33.837Z,18.00
2023-08-27T21:47:26.838Z,18.01
2023-08-27T21:49:22.981Z,18.02
2023-08-27T21:51:16.077Z,18.03
2023-08-27T21:53:09.097Z,18.04
2023-08-27T21:55:02.228Z,18.04
2023-08-27T21:56:55.282Z,18.04
2023-08-27T21:58:48.330Z,18.02
2023-08-27T22:00:41.723Z,18.01
2023-08-27T22:02:36.483Z,17.99
2023-08-27T22:04:29.641Z,17.97
2023-08-27T22:06:22.694Z,17.96
2023-08-27T22:08:15.734Z,17.95
2023-08-27T22:10:10.142Z,17.93
2023-08-27T22:12:25.184Z,17.91
2023-08-27T22:14:19.267Z,17.88
2023-08-27T22:16:12.929Z,17.87
2023-08-27T22:18:06.008Z,17.86
2023-08-27T22:19:59.944Z,17.83
2023-08-27T22:21:53.509Z,17.82
2023-08-27T22:23:46.558Z,17.80
2023-08-27T22:25:39.506Z,17.77
2023-08-27T22:27:33.171Z,17.74
2023-08-27T22:29:26.338Z,17.72
2023-08-27T22:31:19.392Z,17.70
2023-08-27T22:33:12.692Z,17.68
2023-08-27T22:35:16.154Z,17.66
2023-08-27T22:37:09.585Z,17.65
2023-08-27T22:39:02.747Z,17.63
2023-08-27T22:40:55.628Z,17.62
2023-08-27T22:42:48.634Z,17.62
2023-08-27T22:44:41.690Z,17.61
2023-08-27T22:46:34.973Z,17.61
2023-08-27T22:48:27.930Z,17.60
2023-08-27T22:50:20.938Z,17.60
2023-08-27T22:52:14.501Z,17.61
2023-08-27T22:54:09.304Z,17.60
2023-08-27T22:56:02.294Z,17.60
2023-08-27T22:57:55.294Z,17.60
2023-08-27T22:59:48.343Z,17.61
2023-08-27T23:01:41.290Z,17.62
2023-08-27T23:03:34.454Z,17.62
2023-08-27T23:05:27.495Z,17.61
2023-08-27T23:07:20.631Z,17.61
2023-08-27T23:09:13.705Z,17.63
2023-08-27T23:11:07.372Z,17.63
2023-08-27T23:13:00.514Z,17.63
2023-08-27T23:14:53.978Z,17.62
2023-08-27T23:16:47.055Z,17.62
2023-08-27T23:18:41.483Z,17.62
2023-08-27T23:20:35.382Z,17.62
2023-08-27T23:22:28.742Z,17.63
2023-08-27T23:24:21.995Z,17.61
2023-08-27T23:26:17.609Z,17.60
2023-08-27T23:28:10.909Z,17.59
2023-08-27T23:30:04.679Z,17.59
2023-08-27T23:31:58.292Z,17.59
2023-08-27T23:33:51.345Z,17.58
2023-08-27T23:35:44.395Z,17.57
2023-08-27T23:37:37.555Z,17.57
2023-08-27T23:39:31.005Z,17.58
2023-08-27T23:41:24.159Z,17.59
2023-08-27T23:43:17.217Z,17.60
2023-08-27T23:45:10.781Z,17.60
2023-08-27T23:47:04.769Z,17.60
2023-08-27T23:48:57.795Z,17.62
2023-08-27T23:50:50.862Z,17.61
2023-08-27T23:52:44.451Z,17.62
2023-08-27T23:54:37.463Z,17.62
2023-08-27T23:56:30.512Z,17.62
2023-08-27T23:58:23.560Z,17.63
